Hensies, Belgium
Current Conditions -  °F | °C
As of 9:43 AM on Saturday 25 Oct 2014 (Local Time) from EBCV Reporting Station
Overcast Overcast  
Wind Chill: 54°   Ceiling: 900
Heat Index: 54°   Visibility: 4mi
Dew Point: 52°   Wind: 9mph
Humidity: 94%   Direction: 210°SSW
Pressure: 30.06"   Gusts: NA
Location:  50.43°N, 3.68°E
Report Text: EBCV 250743Z AUTO 21008KT 7000 SCT006/// BKN009/// OVC011/// 12/11 Q1018 YLO
Loading
Personal Weather Stations






























Interactive Weather Map
Tropical Storm Tracking
New forecast layout! Learn more

10-Day Weather Forecast

Advertisements
Track Severe Weather on mobile